Boykin, South Carolina
Current Conditions -  °F | °C
As of 10:58 AM on Sunday 21 Dec 2014 (Local Time) from KSSC Reporting Station
Broken Clouds Broken Clouds  
Wind Chill:   Ceiling: 10000
Heat Index:   Visibility: 10mi
Dew Point:   Wind: 10mph
Humidity: 68%   Direction: 30°NNE
Pressure: 30.26"   Gusts: NA
Location:  34.1106°N, 80.4967°W
Report Text: KSSC 211558Z AUTO 03009KT 10SM FEW037 BKN100 09/03 A3026 RMK AO2 SLP249 T00850030 $
Loading
Personal Weather Stations






























Interactive Weather Map New forecast layout! Learn more

10-Day Weather Forecast

Advertisements
Track Severe Weather on mobile